Flight Track Log - Related Links

Times and Time Zones

All times are in EDT time to prevent confusion due to time zone crossing. See the N567MG flight status page for this flight to view local times or setup timezone preferences in your user account.

Time Position Orientation Groundspeed Altitude Reporting Facility
EDT Latitude Longitude Course Direction KTS MPH feet Rate Location/Type
Thu 08:35:03 AM 26.2683 -81.7747 343° North 144 166 6,500  Level Miami Center
Thu 08:36:05 AM 26.3103 -81.7869 345° North 153 176 6,500  Level Miami Center
Thu 08:37:06 AM 26.3550 -81.8011 344° North 154 177 6,500  Level Miami Center
Thu 08:38:08 AM 26.3958 -81.8142 344° North 154 177 6,500  Level Miami Center
Thu 08:39:00 AM 26.7609 -81.8443 318° Northwest  Level FlightAware Approximate
Thu 08:39:10 AM 26.4406 -81.8289 344° North 154 177 6,500  Level Miami Center
Thu 08:40:00 AM 26.7981 -81.8610 343° North  Level FlightAware Approximate
Thu 08:40:11 AM 26.4817 -81.8428 343° North 154 177 6,500  Level Miami Center
Thu 08:41:13 AM 26.5242 -81.8567 344° North 156 180 6,500  Level Miami Center
Thu 08:42:14 AM 26.5697 -81.8703 345° North 156 180 6,500  Level Miami Center
Thu 08:43:16 AM 26.6119 -81.8847 343° North 157 181 6,500  Level Miami Center
Thu 08:44:18 AM 26.6567 -81.8989 344° North 157 181 6,500  Level Miami Center
Thu 08:45:19 AM 26.6986 -81.9128 344° North 157 181 6,500  Level Miami Center
Thu 08:46:21 AM 26.7442 -81.9275 344° North 158 182 6,500  Level Miami Center
Thu 08:47:23 AM 26.7858 -81.9414 343° North 158 182 6,500  Level Miami Center
Thu 08:48:24 AM 26.8278 -81.9550 344° North 158 182 6,500  Level Miami Center
Thu 08:49:26 AM 26.8731 -81.9694 344° North 158 182 6,500  Level Miami Center
Thu 08:50:28 AM 26.9142 -81.9825 344° North 157 181 6,500  Level Miami Center
Thu 08:51:29 AM 26.9597 -81.9978 343° North 157 181 6,500  Level Miami Center
Thu 08:52:31 AM 27.0008 -82.0117 343° North 157 181 6,500  Level Miami Center
Thu 08:53:33 AM 27.0392 -82.0244 343° North 158 182 6,500  Level Miami Center
Thu 08:54:34 AM 27.0900 -82.0406 344° North 158 182 6,500  Level Miami Center
Thu 08:55:36 AM 27.1325 -82.0544 344° North 158 182 6,500  Level Miami Center
Thu 08:56:38 AM 27.1733 -82.0683 343° North 156 180 6,500  Level Miami Center
Thu 08:57:39 AM 27.2153 -82.0822 344° North 157 181 6,500  Level Miami Center
Thu 08:58:41 AM 27.2575 -82.0953 345° North 156 180 6,500  Level Miami Center
Thu 08:59:43 AM 27.3000 -82.1094 344° North 156 180 6,500  Level Miami Center
Thu 09:00:44 AM 27.3425 -82.1236 344° North 157 181 6,500  Level Miami Center
Thu 09:01:46 AM 27.3853 -82.1378 344° North 157 181 6,500  Level Miami Center
Thu 09:02:48 AM 27.4367 -82.1544 344° North 158 182 6,500  Level Miami Center
Thu 09:03:49 AM 27.4789 -82.1686 343° North 158 182 6,500  Level Miami Center
Thu 09:04:51 AM 27.5219 -82.1825 344° North 159 183 6,500  Level Miami Center
Thu 09:05:53 AM 27.5644 -82.1964 344° North 158 182 6,500 -244 Level Miami Center
Thu 09:06:54 AM 27.6097 -82.2108 344° North 166 191 6,000 -537 Descending Miami Center
Thu 09:07:56 AM 27.6567 -82.2261 344° North 172 198 5,400 -516 Descending Miami Center
Thu 09:09:02 AM 27.7167 -82.2500 341° North 175 201 4,900 -476 Descending Tampa TRACON
Thu 09:10:02 AM 27.7667 -82.2667 344° North 176 203 4,400 -500 Descending Tampa TRACON
Thu 09:11:02 AM 27.8000 -82.2833 336° Northwest 175 201 3,900 -550 Descending Tampa TRACON
Thu 09:12:02 AM 27.8500 -82.3000 344° North 174 200 3,300 -550 Descending Tampa TRACON
Thu 09:13:02 AM 27.9000 -82.3167 344° North 174 200 2,800 -500 Descending Tampa TRACON

Login

Don't have an account? Register now (free) for customized features, flight alerts, and more!